Time;durP1;ratioP1;P1;durP2;ratioP2;P2;SDS_P1;SDS_P2;PMS_P1;PMS_P2;Temp;Humidity;BMP_temperature;BMP_pressure;BME280_temperature;BME280_humidity;BME280_pressure;Samples;Min_cycle;Max_cycle;Signal;HPM_P1;HPM_P2
2023/01/04 00:02:37;;;;;;;8.63;2.47;;;;;;;;;;10521562;28;20486;-83
2023/01/04 00:07:59;;;;;;;6.97;2.33;;;;;;;;;;10503772;28;20233;-84
2023/01/04 00:13:20;;;;;;;7.33;2.43;;;;;;;;;;10506389;28;20505;-85
2023/01/04 00:18:42;;;;;;;3.60;2.07;;;;;;;;;;10521341;28;20199;-84
2023/01/04 00:24:03;;;;;;;3.87;2.10;;;;;;;;;;10502922;28;20299;-83
2023/01/04 00:29:24;;;;;;;4.93;2.27;;;;;;;;;;10475080;28;20517;-80
2023/01/04 00:34:46;;;;;;;7.13;2.80;;;;;;;;;;10491226;28;20278;-80
2023/01/04 00:40:07;;;;;;;5.83;3.03;;;;;;;;;;10505680;28;20252;-84
2023/01/04 00:45:29;;;;;;;8.37;3.40;;;;;;;;;;10505284;28;20233;-85
2023/01/04 00:50:51;;;;;;;11.03;3.60;;;;;;;;;;10505485;28;20234;-83
2023/01/04 00:56:12;;;;;;;4.10;2.53;;;;;;;;;;10502189;28;20517;-85
2023/01/04 01:01:34;;;;;;;7.53;3.10;;;;;;;;;;10527891;28;20238;-85
2023/01/04 01:06:55;;;;;;;5.87;2.90;;;;;;;;;;10510334;28;20230;-79
2023/01/04 01:12:17;;;;;;;6.53;2.70;;;;;;;;;;10510645;28;20195;-84
2023/01/04 01:17:38;;;;;;;7.80;3.53;;;3.30;1.00;;;;;;10510592;28;20256;-85
2023/01/04 01:22:59;;;;;;;11.30;3.87;;;3.30;16.00;;;;;;10513120;28;20196;-85
2023/01/04 01:28:20;;;;;;;6.63;3.80;;;3.20;39.50;;;;;;10509817;28;20200;-85
2023/01/04 01:33:43;;;;;;;7.87;3.87;;;3.20;57.00;;;;;;10499962;28;20226;-83
2023/01/04 01:39:05;;;;;;;19.03;7.87;;;;;;;;;;10526400;28;20381;-85
2023/01/04 01:44:42;;;;;;;18.00;7.80;;;3.00;20.70;;;;;;10526939;28;20262;-84
2023/01/04 01:50:09;;;;;;;17.13;9.07;;;2.90;43.80;;;;;;10509151;28;20203;-86
2023/01/04 01:55:32;;;;;;;20.37;8.03;;;2.90;66.80;;;;;;10511591;28;20219;-83
2023/01/04 02:00:53;;;;;;;14.37;6.00;;;;;;;;;;10511719;28;20188;-84
2023/01/04 02:06:21;;;;;;;22.43;7.07;;;2.70;37.90;;;;;;10526308;28;20216;-84
2023/01/04 02:11:42;;;;;;;29.90;9.03;;;2.60;51.60;;;;;;10493598;28;20199;-83
2023/01/04 02:17:40;;;;;;;22.90;10.30;;;2.70;37.40;;;;;;10510989;28;20481;-85
2023/01/04 02:23:19;;;;;;;10.90;5.67;;;2.60;40.00;;;;;;10525196;28;20260;-79
2023/01/04 02:28:58;;;;;;;9.37;5.33;;;2.50;46.40;;;;;;10493879;28;20207;-85
2023/01/04 02:34:35;;;;;;;11.83;6.73;;;2.50;57.60;;;;;;10525001;28;20226;-85
2023/01/04 02:39:56;;;;;;;16.43;7.70;;;2.50;56.40;;;;;;10484539;28;20193;-86
2023/01/04 02:45:23;;;;;;;12.73;6.27;;;2.40;55.80;;;;;;10483977;28;20235;-85
2023/01/04 02:50:56;;;;;;;12.27;6.03;;;2.30;50.10;;;;;;10483371;28;20216;-86
2023/01/04 02:56:34;;;;;;;8.77;4.77;;;2.20;52.20;;;;;;10464941;28;20554;-85
2023/01/04 03:08:03;;;;;;;11.33;7.97;;;2.10;72.30;;;;;;10487331;28;20225;-85
2023/01/04 03:13:39;;;;;;;11.07;5.40;;;1.90;84.50;;;;;;10523691;28;20191;-80
2023/01/04 03:19:08;;;;;;;12.17;5.80;;;1.80;83.00;;;;;;10523426;28;20486;-83
2023/01/04 03:36:06;;;;;;;12.20;4.80;;;1.90;99.90;;;;;;10496915;28;20204;-83
2023/01/04 03:53:13;;;;;;;9.43;6.40;;;1.90;99.90;;;;;;10524825;28;20237;-84
2023/01/04 03:58:35;;;;;;;10.07;6.07;;;1.90;99.90;;;;;;10522966;28;20244;-75
2023/01/04 04:09:36;;;;;;;14.53;5.97;;;1.80;76.10;;;;;;10521037;28;20195;-79
2023/01/04 04:14:57;;;;;;;11.80;6.30;;;1.70;95.20;;;;;;10506199;28;20262;-86
2023/01/04 04:20:18;;;;;;;14.40;5.93;;;1.70;96.40;;;;;;10489093;28;20501;-83
2023/01/04 04:25:39;;;;;;;16.43;6.77;;;1.70;67.10;;;;;;10520927;28;20260;-84
2023/01/04 04:31:01;;;;;;;14.87;8.60;;;1.60;92.20;;;;;;10503026;28;20388;-84
2023/01/04 04:36:22;;;;;;;24.77;15.60;;;1.70;99.90;;;;;;10501749;28;20209;-82
2023/01/04 04:41:43;;;;;;;18.07;10.60;;;1.70;84.20;;;;;;10502625;28;20473;-84
2023/01/04 04:47:05;;;;;;;20.30;10.93;;;1.70;95.80;;;;;;10503019;28;20606;-83
2023/01/04 04:52:26;;;;;;;22.10;14.27;;;1.70;76.80;;;;;;10520129;28;20187;-84
2023/01/04 04:57:47;;;;;;;18.43;10.67;;;1.80;46.20;;;;;;10520188;28;20195;-83
2023/01/04 05:03:08;;;;;;;16.37;8.40;;;1.80;41.00;;;;;;10519734;28;20244;-83
2023/01/04 05:08:30;;;;;;;20.70;13.83;;;1.90;17.50;;;;;;10519925;28;20255;-84
2023/01/04 05:13:51;;;;;;;16.60;9.90;;;1.80;9.30;;;;;;10505164;28;20392;-83
2023/01/04 05:19:12;;;;;;;15.27;8.13;;;1.70;1.40;;;;;;10487740;28;20225;-82
2023/01/04 05:24:33;;;;;;;13.27;7.73;;;1.80;8.40;;;;;;10488004;28;20308;-84
2023/01/04 05:35:34;;;;;;;10.57;4.80;;;1.70;8.80;;;;;;10507952;28;20292;-83
2023/01/04 05:40:55;;;;;;;24.07;16.40;;;1.70;13.00;;;;;;10501243;28;20237;-78
2023/01/04 05:46:16;;;;;;;37.87;20.23;;;1.80;8.30;;;;;;10522225;28;20230;-81
2023/01/04 05:51:37;;;;;;;29.57;14.93;;;1.70;1.00;;;;;;10495015;28;20269;-83
2023/01/04 05:56:59;;;;;;;43.73;20.03;;;1.80;11.10;;;;;;10526545;28;20205;-83
2023/01/04 06:02:24;;;;;;;42.90;19.83;;;1.90;4.50;;;;;;10526281;28;20266;-86
2023/01/04 06:07:46;;;;;;;44.43;18.33;;;1.80;1.00;;;;;;10511550;28;20226;-82
2023/01/04 06:13:07;;;;;;;26.47;11.00;;;1.90;1.00;;;;;;10526250;28;20187;-84
2023/01/04 06:18:29;;;;;;;37.23;12.97;;;1.90;1.00;;;;;;10494164;28;20203;-83
2023/01/04 06:23:51;;;;;;;28.97;13.07;;;1.70;1.00;;;;;;10510697;28;20279;-85
2023/01/04 06:29:12;;;;;;;21.67;12.50;;;1.80;1.00;;;;;;10510571;28;20199;-83
2023/01/04 06:34:33;;;;;;;18.50;7.77;;;1.80;1.00;;;;;;10495624;28;20201;-82
2023/01/04 06:39:54;;;;;;;24.07;13.17;;;1.80;1.00;;;;;;10454380;28;20231;-84
2023/01/04 06:45:16;;;;;;;36.43;16.17;;;1.80;1.00;;;;;;10467777;28;20276;-83
2023/01/04 06:50:37;;;;;;;28.07;14.73;;;2.00;1.00;;;;;;10450788;28;20198;-80
2023/01/04 06:55:58;;;;;;;26.27;16.17;;;2.00;1.00;;;;;;10464256;28;20204;-80
2023/01/04 07:01:19;;;;;;;16.70;10.90;;;2.00;1.00;;;;;;10467432;28;20210;-81
2023/01/04 07:06:40;;;;;;;15.93;7.73;;;2.10;1.00;;;;;;10460086;28;20377;-83
2023/01/04 07:12:02;;;;;;;32.53;13.30;;;2.20;1.00;;;;;;10491509;28;20203;-81
2023/01/04 07:17:23;;;;;;;22.37;10.37;;;2.10;1.00;;;;;;10490680;28;20211;-84
2023/01/04 07:22:47;;;;;;;29.70;11.60;;;2.10;1.00;;;;;;10494502;28;20233;-80
2023/01/04 07:28:09;;;;;;;19.07;10.37;;;2.20;1.00;;;;;;10490352;28;20221;-83
2023/01/04 07:33:30;;;;;;;22.23;13.57;;;2.20;1.00;;;;;;10517038;28;20229;-81
2023/01/04 07:38:51;;;;;;;31.23;15.80;;;2.30;1.00;;;;;;10518658;28;20381;-82
2023/01/04 07:44:13;;;;;;;24.77;12.93;;;2.30;1.00;;;;;;10489452;28;20269;-83
2023/01/04 07:49:34;;;;;;;16.50;9.50;;;2.30;1.00;;;;;;10503650;28;20385;-83
2023/01/04 07:54:55;;;;;;;25.77;12.80;;;2.20;1.00;;;;;;10503449;28;20378;-84
2023/01/04 08:00:17;;;;;;;44.97;24.70;;;2.20;1.00;;;;;;10475054;28;20278;-83
2023/01/04 08:05:38;;;;;;;32.43;19.47;;;2.20;1.00;;;;;;10491723;28;20222;-83
2023/01/04 08:11:05;;;;;;;34.70;20.73;;;2.30;1.00;;;;;;10505373;28;20191;-83
2023/01/04 08:16:31;;;;;;;39.80;21.97;;;2.30;1.00;;;;;;10520780;28;20517;-82
2023/01/04 08:21:52;;;;;;;82.83;35.20;;;2.30;1.30;;;;;;10518262;28;20469;-82
2023/01/04 08:27:14;;;;;;;67.87;33.97;;;2.40;1.00;;;;;;10458130;28;20447;-79
2023/01/04 08:32:35;;;;;;;25.20;15.40;;;2.50;1.00;;;;;;10530732;28;20194;-79
2023/01/04 08:37:56;;;;;;;32.70;18.40;;;2.50;1.00;;;;;;10475587;28;20209;-85
2023/01/04 08:43:27;;;;;;;29.47;15.63;;;2.50;10.20;;;;;;10489218;28;20548;-80
2023/01/04 08:48:50;;;;;;;50.27;25.00;;;2.50;16.90;;;;;;10466047;28;20537;-81
2023/01/04 08:54:12;;;;;;;28.23;15.97;;;2.70;11.90;;;;;;10492280;28;20202;-82
2023/01/04 08:59:33;;;;;;;30.83;19.00;;;2.70;19.60;;;;;;10490283;28;20219;-81
2023/01/04 09:04:59;;;;;;;32.27;16.60;;;2.80;11.50;;;;;;10452502;28;20231;-81
2023/01/04 09:10:21;;;;;;;29.30;15.33;;;2.90;1.00;;;;;;10471532;28;20222;-81
2023/01/04 09:15:42;;;;;;;26.40;15.57;;;3.00;1.00;;;;;;10442206;28;20215;-82
2023/01/04 09:21:08;;;;;;;21.97;14.30;;;2.90;1.00;;;;;;10502671;28;20217;-80
2023/01/04 09:26:29;;;;;;;29.73;15.63;;;2.90;17.20;;;;;;10484834;28;20456;-80
2023/01/04 09:31:51;;;;;;;57.73;25.90;;;2.90;30.70;;;;;;10509202;28;20270;-81
2023/01/04 09:37:12;;;;;;;44.47;24.47;;;3.00;5.70;;;;;;10485850;28;20211;-82
2023/01/04 09:42:43;;;;;;;34.60;23.90;;;3.00;11.60;;;;;;10502113;28;20246;-81
2023/01/04 09:48:09;;;;;;;21.17;14.07;;;3.00;1.00;;;;;;10479209;28;20227;-82
2023/01/04 09:53:33;;;;;;;31.30;15.60;;;3.10;2.80;;;;;;10479481;28;20218;-83
2023/01/04 09:58:56;;;;;;;29.97;16.23;;;3.10;3.60;;;;;;10473821;28;20199;-85
2023/01/04 10:04:42;;;;;;;30.27;16.30;;;3.00;9.60;;;;;;10497804;28;20450;-81
2023/01/04 10:10:04;;;;;;;33.23;18.73;;;3.10;37.60;;;;;;10503805;28;20198;-80
2023/01/04 10:15:31;;;;;;;28.33;15.37;;;3.10;1.20;;;;;;10485619;28;20206;-79
2023/01/04 10:21:25;;;;;;;40.37;22.07;;;3.20;8.70;;;;;;10483872;28;20218;-82
2023/01/04 10:27:00;;;;;;;32.83;18.87;;;3.20;1.00;;;;;;10472678;28;20242;-78
2023/01/04 10:32:32;;;;;;;29.63;16.93;;;3.20;1.00;;;;;;10491318;28;20201;-81
2023/01/04 10:37:59;;;;;;;42.17;21.13;;;3.30;1.00;;;;;;10477471;28;20206;-80
2023/01/04 10:43:32;;;;;;;51.73;26.90;;;3.30;1.00;;;;;;10504579;28;20238;-79
2023/01/04 10:49:17;;;;;;;77.90;38.87;;;3.30;1.00;;;;;;10481047;28;20242;-80
2023/01/04 10:54:52;;;;;;;42.30;24.60;;;3.40;10.00;;;;;;10503504;28;20667;-80
2023/01/04 11:00:16;;;;;;;39.37;22.57;;;3.50;1.00;;;;;;10487365;28;20291;-83
2023/01/04 11:06:17;;;;;;;36.37;22.97;;;3.50;10.60;;;;;;10502754;28;20242;-77
2023/01/04 11:11:43;;;;;;;30.27;16.90;;;3.60;1.00;;;;;;10342229;28;20210;-79
2023/01/04 11:17:09;;;;;;;57.27;23.73;;;3.70;1.00;;;;;;10371412;28;20221;-81
2023/01/04 11:22:35;;;;;;;35.13;24.30;;;3.80;1.00;;;;;;10391294;28;20779;-80
2023/01/04 11:28:05;;;;;;;29.57;18.27;;;3.70;1.00;;;;;;10345432;28;20566;-85
2023/01/04 11:33:26;;;;;;;29.10;16.73;;;3.70;10.50;;;;;;10390154;28;20482;-79
2023/01/04 11:38:55;;;;;;;25.20;15.57;;;3.80;1.00;;;;;;10369585;28;20214;-79
2023/01/04 11:44:18;;;;;;;21.53;14.00;;;4.00;1.00;;;;;;10415202;28;20236;-81
2023/01/04 11:49:39;;;;;;;24.67;15.20;;;3.90;1.00;;;;;;10472146;28;20240;-83
2023/01/04 11:55:35;;;;;;;26.50;14.57;;;4.20;1.00;;;;;;10465653;28;20215;-78
2023/01/04 12:00:57;;;;;;;27.43;17.37;;;4.20;1.00;;;;;;10388979;28;20209;-78
2023/01/04 12:06:42;;;;;;;21.70;13.93;;;4.20;1.00;;;;;;10343091;28;20280;-77
2023/01/04 12:12:04;;;;;;;23.77;13.67;;;4.20;1.00;;;;;;10387029;28;20215;-79
2023/01/04 12:18:25;;;;;;;25.97;14.20;;;4.10;1.00;;;;;;10332165;28;20210;-78
2023/01/04 12:23:47;;;;;;;25.00;13.73;;;4.20;28.90;;;;;;10241023;29;20542;-78
2023/01/04 12:29:23;;;;;;;23.47;13.57;;;4.20;23.50;;;;;;10208663;29;20236;-79
2023/01/04 12:34:46;;;;;;;32.87;17.03;;;4.20;40.50;;;;;;10311871;28;20215;-80
2023/01/04 12:40:44;;;;;;;26.27;14.50;;;4.10;92.10;;;;;;10355374;28;20479;-81
2023/01/04 12:52:12;;;;;;;27.33;14.63;;;4.10;99.90;;;;;;10346253;28;20325;-81
2023/01/04 12:57:51;;;;;;;24.73;12.63;;;4.20;93.90;;;;;;10418085;28;20215;-83
2023/01/04 13:03:18;;;;;;;46.03;18.70;;;4.20;99.90;;;;;;10449633;28;20215;-85
2023/01/04 13:08:43;;;;;;;24.67;13.87;;;4.20;99.90;;;;;;10492885;28;20220;-78
2023/01/04 13:14:16;;;;;;;63.77;25.77;;;4.20;99.90;;;;;;10449152;28;20204;-78
2023/01/04 13:19:38;;;;;;;25.60;15.67;;;4.30;99.90;;;;;;10454895;28;20271;-78
2023/01/04 13:25:01;;;;;;;68.13;27.53;;;4.30;99.90;;;;;;10485740;28;20222;-80
2023/01/04 13:30:30;;;;;;;30.53;16.13;;;4.30;99.90;;;;;;10476719;28;20461;-77
2023/01/04 13:36:07;;;;;;;25.10;14.10;;;4.30;99.90;;;;;;10512073;28;20196;-77
2023/01/04 13:41:29;;;;;;;23.13;13.33;;;4.30;99.90;;;;;;10504821;28;20238;-77
2023/01/04 13:46:53;;;;;;;37.13;16.60;;;4.40;99.90;;;;;;10512463;28;20230;-78
2023/01/04 13:52:25;;;;;;;27.70;15.77;;;4.40;99.90;;;;;;10486593;28;20203;-79
2023/01/04 13:58:18;;;;;;;27.20;12.97;;;4.40;99.90;;;;;;10495447;28;20203;-77
2023/01/04 14:03:43;;;;;;;29.80;16.03;;;4.40;99.90;;;;;;10502774;28;20199;-80
2023/01/04 14:09:09;;;;;;;42.07;17.00;;;4.40;99.90;;;;;;10489360;28;20226;-81
2023/01/04 14:14:59;;;;;;;29.50;13.73;;;4.40;99.90;;;;;;10495052;28;20199;-78
2023/01/04 14:20:23;;;;;;;22.30;13.43;;;4.50;99.90;;;;;;10481231;28;20255;-77
2023/01/04 14:25:47;;;;;;;20.47;11.30;;;4.50;99.90;;;;;;10465659;28;20236;-78
2023/01/04 14:31:08;;;;;;;24.13;13.53;;;4.50;99.90;;;;;;10504087;28;20200;-78
2023/01/04 14:36:31;;;;;;;15.90;11.43;;;4.60;99.90;;;;;;10483951;28;20535;-77
2023/01/04 14:41:56;;;;;;;27.17;12.77;;;4.60;99.90;;;;;;10516855;28;20223;-79
2023/01/04 14:47:17;;;;;;;20.03;11.63;;;4.70;99.90;;;;;;10485899;28;20244;-78
2023/01/04 14:52:38;;;;;;;24.10;12.97;;;4.70;99.90;;;;;;10498902;28;20192;-77
2023/01/04 14:57:59;;;;;;;23.77;12.60;;;4.70;99.90;;;;;;10500363;28;20199;-77
2023/01/04 15:03:20;;;;;;;15.60;9.70;;;4.70;99.90;;;;;;10475810;28;20282;-80
2023/01/04 15:08:41;;;;;;;15.27;8.87;;;4.80;99.90;;;;;;10517659;28;20215;-78
2023/01/04 15:14:03;;;;;;;12.93;7.07;;;4.90;99.90;;;;;;10490108;28;20211;-78
2023/01/04 15:19:24;;;;;;;10.47;7.63;;;5.00;99.90;;;;;;10499695;28;20486;-80
2023/01/04 15:24:45;;;;;;;11.63;7.03;;;4.90;99.90;;;;;;10464535;28;20224;-76
2023/01/04 15:30:07;;;;;;;11.73;6.43;;;4.90;99.90;;;;;;10504405;28;20208;-77
2023/01/04 15:35:27;;;;;;;8.60;6.03;;;5.10;99.90;;;;;;10494262;28;20195;-77
2023/01/04 15:40:50;;;;;;;14.83;8.77;;;5.00;99.90;;;;;;10512498;28;20320;-78
2023/01/04 15:46:11;;;;;;;31.23;15.17;;;5.10;99.90;;;;;;10490709;28;20227;-78
2023/01/04 15:51:32;;;;;;;22.43;10.63;;;5.10;99.90;;;;;;10477777;28;20236;-77
2023/01/04 15:56:53;;;;;;;17.93;9.00;;;5.10;99.90;;;;;;10514381;28;20195;-78
2023/01/04 16:02:15;;;;;;;18.40;9.33;;;5.10;99.90;;;;;;10486068;28;20192;-76
2023/01/04 16:07:36;;;;;;;14.63;8.27;;;5.30;99.90;;;;;;10504412;28;20223;-79
2023/01/04 16:12:58;;;;;;;17.50;8.93;;;5.30;99.90;;;;;;10501999;28;20482;-78
2023/01/04 16:18:19;;;;;;;31.37;14.33;;;5.20;99.90;;;;;;10492802;28;20213;-80
2023/01/04 16:23:40;;;;;;;11.37;6.00;;;5.30;99.90;;;;;;10463634;28;20528;-80
2023/01/04 16:29:02;;;;;;;24.27;11.30;;;5.40;99.90;;;;;;10489324;28;20320;-80
2023/01/04 16:34:23;;;;;;;13.73;7.20;;;5.40;99.90;;;;;;10475517;28;20251;-80
2023/01/04 16:39:44;;;;;;;36.93;15.80;;;5.40;99.90;;;;;;10480941;28;20208;-80
2023/01/04 16:45:25;;;;;;;6.23;3.47;;;5.50;99.90;;;;;;10449505;28;20305;-80
2023/01/04 16:50:46;;;;;;;9.10;4.60;;;5.60;99.90;;;;;;10469779;28;20208;-80
2023/01/04 16:56:11;;;;;;;8.57;3.47;;;5.60;99.90;;;;;;10462890;28;20222;-80
2023/01/04 17:01:35;;;;;;;5.70;3.47;;;5.70;99.90;;;;;;10460345;28;20285;-80
2023/01/04 17:06:57;;;;;;;9.33;4.70;;;5.80;99.90;;;;;;10486603;28;20225;-79
2023/01/04 17:12:18;;;;;;;8.47;4.17;;;5.80;99.90;;;;;;10498044;28;20193;-79
2023/01/04 17:17:59;;;;;;;7.87;3.67;;;5.90;99.90;;;;;;10477884;28;20525;-80
2023/01/04 17:23:21;;;;;;;8.97;3.83;;;5.90;99.90;;;;;;10492643;28;20237;-80
2023/01/04 17:28:43;;;;;;;7.97;3.60;;;5.90;99.90;;;;;;10485202;28;20235;-79
2023/01/04 17:34:06;;;;;;;7.70;3.63;;;6.00;99.90;;;;;;10487405;28;20202;-80
2023/01/04 17:39:29;;;;;;;5.50;3.23;;;6.00;99.90;;;;;;10477226;28;20269;-80
2023/01/04 17:44:50;;;;;;;13.17;4.43;;;6.10;99.90;;;;;;10475813;28;20453;-80
2023/01/04 17:50:12;;;;;;;12.00;5.00;;;6.10;99.90;;;;;;10517887;28;20276;-80
2023/01/04 17:55:34;;;;;;;9.20;3.43;;;6.10;99.90;;;;;;10469135;28;20201;-79
2023/01/04 18:00:55;;;;;;;10.57;4.17;;;6.30;99.90;;;;;;10472415;28;20207;-79
2023/01/04 18:06:18;;;;;;;5.30;3.50;;;6.30;99.90;;;;;;10490552;28;20254;-79
2023/01/04 18:11:47;;;;;;;11.97;6.30;;;6.40;99.90;;;;;;10520950;28;20206;-80
2023/01/04 18:17:09;;;;;;;8.93;4.60;;;6.40;99.90;;;;;;10483408;28;20201;-80
2023/01/04 18:22:33;;;;;;;10.70;5.67;;;6.40;99.90;;;;;;10487804;28;20212;-79
2023/01/04 18:27:54;;;;;;;6.37;3.70;;;6.50;99.90;;;;;;10495356;28;20266;-80
2023/01/04 18:33:15;;;;;;;6.83;4.80;;;6.60;99.90;;;;;;10509381;28;20280;-80
2023/01/04 18:38:36;;;;;;;9.30;6.33;;;6.60;99.90;;;;;;10524504;28;20190;-79
2023/01/04 18:43:58;;;;;;;4.00;3.20;;;6.70;99.90;;;;;;10465015;28;20248;-79
2023/01/04 18:49:26;;;;;;;7.20;5.57;;;6.80;99.90;;;;;;10464447;28;20218;-79
2023/01/04 18:54:47;;;;;;;5.20;3.80;;;6.80;99.90;;;;;;10464356;28;20236;-81
2023/01/04 19:00:09;;;;;;;6.37;4.53;;;6.90;99.90;;;;;;10481897;28;20256;-81
2023/01/04 19:05:30;;;;;;;6.83;4.20;;;6.90;99.90;;;;;;10464228;28;20206;-80
2023/01/04 19:10:51;;;;;;;4.30;3.43;;;7.00;99.90;;;;;;10476488;28;20205;-80
2023/01/04 19:16:13;;;;;;;6.57;4.30;;;7.00;99.90;;;;;;10466790;28;20273;-81
2023/01/04 19:21:35;;;;;;;7.20;3.90;;;7.10;99.90;;;;;;10497306;28;20309;-80
2023/01/04 19:27:01;;;;;;;6.57;3.77;;;7.10;99.90;;;;;;10484177;28;20233;-81
2023/01/04 19:32:22;;;;;;;5.73;3.93;;;7.10;99.90;;;;;;10480860;28;20240;-81
2023/01/04 19:37:45;;;;;;;8.20;4.80;;;7.20;99.90;;;;;;10466176;28;20234;-81
2023/01/04 19:43:06;;;;;;;6.33;3.70;;;7.40;99.90;;;;;;10451954;28;20243;-81
2023/01/04 19:48:29;;;;;;;5.90;3.93;;;7.40;99.90;;;;;;10465113;28;20543;-81
2023/01/04 19:53:50;;;;;;;6.67;4.47;;;7.40;99.90;;;;;;10480056;28;20211;-81
2023/01/04 19:59:11;;;;;;;10.30;5.17;;;7.50;99.90;;;;;;10462448;28;20225;-81
2023/01/04 20:04:33;;;;;;;11.30;5.23;;;7.60;99.90;;;;;;10489149;28;20419;-81
2023/01/04 20:09:54;;;;;;;12.97;4.97;;;7.70;99.90;;;;;;10502375;28;20224;-81
2023/01/04 20:15:15;;;;;;;9.90;4.90;;;7.60;99.90;;;;;;10480121;28;20202;-81
2023/01/04 20:20:41;;;;;;;12.23;5.47;;;7.70;99.90;;;;;;10479113;28;20507;-81
2023/01/04 20:26:07;;;;;;;11.70;5.33;;;7.70;99.90;;;;;;10513590;28;20410;-81
2023/01/04 20:31:32;;;;;;;6.20;4.63;;;7.80;99.90;;;;;;10478329;28;20515;-80
2023/01/04 20:36:53;;;;;;;7.97;4.50;;;7.80;99.90;;;;;;10478788;28;20190;-81
2023/01/04 20:47:53;;;;;;;7.97;4.27;;;7.80;99.90;;;;;;10460327;28;20233;-81
2023/01/04 20:53:15;;;;;;;6.23;4.00;;;7.70;99.90;;;;;;10482072;28;20250;-81
2023/01/04 20:58:37;;;;;;;6.27;2.80;;;7.70;99.90;;;;;;10463517;28;20493;-81
2023/01/04 21:03:58;;;;;;;8.13;4.40;;;7.70;99.90;;;;;;10491317;28;20230;-79
2023/01/04 21:09:20;;;;;;;8.37;4.00;;;7.70;99.90;;;;;;10492018;28;20256;-79
2023/01/04 21:14:41;;;;;;;3.33;2.17;;;7.80;99.90;;;;;;10475813;28;20198;-80
2023/01/04 21:20:03;;;;;;;4.77;2.77;;;8.00;99.90;;;;;;10486209;28;20275;-79
2023/01/04 21:25:24;;;;;;;4.67;2.20;;;7.90;99.90;;;;;;10512222;28;20300;-79
2023/01/04 21:30:46;;;;;;;5.80;2.27;;;7.80;99.90;;;;;;10499211;28;20210;-79
2023/01/04 21:36:18;;;;;;;4.63;2.30;;;7.80;99.90;;;;;;10489213;28;20229;-80
2023/01/04 21:41:40;;;;;;;8.37;3.93;;;7.80;99.90;;;;;;10474436;28;20310;-78
2023/01/04 21:47:04;;;;;;;7.07;3.07;;;7.80;99.90;;;;;;10470356;28;20456;-79
2023/01/04 21:52:25;;;;;;;4.97;3.00;;;7.80;99.90;;;;;;10473004;28;20210;-78
2023/01/04 21:57:46;;;;;;;5.23;2.80;;;7.80;99.90;;;;;;10497950;28;20493;-80
2023/01/04 22:03:09;;;;;;;2.80;1.83;;;7.70;99.90;;;;;;10508743;28;20213;-80
2023/01/04 22:08:30;;;;;;;6.87;2.20;;;7.70;99.90;;;;;;10509386;28;20381;-80
2023/01/04 22:13:51;;;;;;;11.03;5.20;;;7.70;99.90;;;;;;10492267;28;20199;-81
2023/01/04 22:19:13;;;;;;;3.23;2.00;;;7.70;99.90;;;;;;10469061;28;20199;-80
2023/01/04 22:24:34;;;;;;;4.77;2.03;;;7.70;99.90;;;;;;10483375;28;20496;-81
2023/01/04 22:29:57;;;;;;;4.50;2.10;;;7.70;99.90;;;;;;10493591;28;20222;-81
2023/01/04 22:35:18;;;;;;;5.10;2.00;;;7.80;99.90;;;;;;10473429;28;20199;-81
2023/01/04 22:40:40;;;;;;;4.87;2.10;;;7.80;99.90;;;;;;10468308;28;20187;-81
2023/01/04 22:46:04;;;;;;;3.40;1.63;;;7.80;99.90;;;;;;10482859;28;20210;-80
2023/01/04 22:51:28;;;;;;;4.23;2.20;;;7.90;99.90;;;;;;10482801;28;20235;-78
2023/01/04 22:56:50;;;;;;;2.97;1.87;;;7.90;99.90;;;;;;10468858;28;20248;-79
2023/01/04 23:02:11;;;;;;;4.83;1.80;;;7.80;99.90;;;;;;10516559;28;20193;-80
2023/01/04 23:07:32;;;;;;;2.27;1.57;;;7.70;99.90;;;;;;10484186;28;20216;-80
2023/01/04 23:12:54;;;;;;;4.23;1.63;;;7.80;99.90;;;;;;10498092;28;20209;-80
2023/01/04 23:18:15;;;;;;;2.23;1.20;;;7.80;99.90;;;;;;10483224;28;20197;-80
2023/01/04 23:23:37;;;;;;;6.07;1.20;;;7.80;99.90;;;;;;10469316;28;20255;-79
2023/01/04 23:28:59;;;;;;;2.33;1.10;;;8.00;99.90;;;;;;10497982;28;20260;-80
2023/01/04 23:34:20;;;;;;;3.10;1.27;;;8.10;99.90;;;;;;10454582;28;20256;-80
2023/01/04 23:39:41;;;;;;;2.30;1.03;;;8.10;99.90;;;;;;10463014;28;20198;-81
2023/01/04 23:45:02;;;;;;;3.73;1.10;;;8.20;99.90;;;;;;10480569;28;20540;-80
2023/01/04 23:50:23;;;;;;;3.93;1.30;;;8.10;99.90;;;;;;10480491;28;20422;-81
2023/01/04 23:55:54;;;;;;;6.33;1.60;;;8.10;99.90;;;;;;10465891;28;20519;-81
